Time;durP1;ratioP1;P1;durP2;ratioP2;P2;SDS_P1;SDS_P2;PMS_P1;PMS_P2;Temp;Humidity;BMP_temperature;BMP_pressure;BME280_temperature;BME280_humidity;BME280_pressure;Samples;Min_cycle;Max_cycle;Signal;HPM_P1;HPM_P2
2023/02/21 02:16:21;;;;;;;1.43;0.70;;;7.20;99.90;;;6.95;70.36;98830.19;5035177;28;20241;-65
2023/02/21 02:19:41;;;;;;;2.73;0.70;;;7.20;99.90;;;6.93;70.50;98836.22;5033292;28;20241;-67
2023/02/21 02:22:55;;;;;;;2.03;0.90;;;7.20;99.90;;;6.90;70.83;98826.88;5033562;28;20218;-65
2023/02/21 02:25:48;;;;;;;1.40;0.90;;;7.20;99.90;;;6.92;70.42;98837.06;5010845;28;20465;-65
2023/02/21 02:28:48;;;;;;;2.03;0.60;;;7.20;99.90;;;6.90;70.44;98842.25;5027881;28;20203;-65
2023/02/21 02:31:49;;;;;;;0.70;0.70;;;7.20;99.90;;;6.90;69.87;98831.16;5031479;28;20221;-65
2023/02/21 02:34:52;;;;;;;1.37;0.87;;;7.10;99.90;;;6.86;70.08;98830.34;5027822;28;20187;-65
2023/02/21 02:37:30;;;;;;;3.10;0.90;;;7.10;99.90;;;6.86;70.41;98839.75;5022008;28;20281;-65
2023/02/21 02:40:07;;;;;;;2.13;0.90;;;7.10;99.90;;;6.83;70.40;98832.97;5031729;28;20203;-65
2023/02/21 02:42:52;;;;;;;1.17;0.80;;;7.10;99.90;;;6.83;68.81;98834.69;5024489;28;20207;-67
2023/02/21 02:45:30;;;;;;;4.03;0.83;;;7.10;99.90;;;6.84;68.55;98836.38;5027767;28;20210;-65
2023/02/21 02:48:03;;;;;;;3.80;1.07;;;7.00;99.90;;;6.83;67.90;98835.53;5022115;28;20241;-64
2023/02/21 02:50:34;;;;;;;3.63;0.97;;;7.00;99.90;;;6.80;67.54;98830.44;5030043;28;20199;-65
2023/02/21 02:53:04;;;;;;;3.53;1.17;;;7.10;99.90;;;6.80;67.16;98829.59;5029920;28;20191;-65
2023/02/21 02:55:41;;;;;;;2.77;1.23;;;7.00;99.90;;;6.81;67.28;98833.84;5029778;28;20222;-67
2023/02/21 02:58:11;;;;;;;2.23;0.97;;;7.10;99.90;;;6.78;66.12;98833.03;5024198;28;20294;-65
2023/02/21 03:00:45;;;;;;;3.43;0.90;;;7.00;99.90;;;6.78;66.05;98822.81;5026841;28;20183;-66
2023/02/21 03:03:38;;;;;;;1.40;0.60;;;7.00;99.90;;;6.76;66.90;98821.97;5027136;28;20195;-65
2023/02/21 03:06:24;;;;;;;2.40;0.80;;;7.00;99.90;;;6.78;66.93;98827.91;5028114;28;20196;-64
2023/02/21 03:09:00;;;;;;;4.97;1.00;;;7.00;99.90;;;6.78;66.56;98822.81;5027577;28;20175;-65
2023/02/21 03:11:29;;;;;;;2.00;0.80;;;7.00;99.90;;;6.80;66.65;98834.72;5035379;28;20201;-65
2023/02/21 03:14:06;;;;;;;5.23;1.03;;;7.10;99.90;;;6.81;66.58;98823.59;5037226;28;21203;-65
2023/02/21 03:16:40;;;;;;;1.33;1.00;;;7.10;99.90;;;6.82;66.90;98820.19;5037441;28;20187;-66
2023/02/21 03:19:12;;;;;;;2.63;0.90;;;7.10;99.90;;;6.81;66.77;98821.88;5039295;28;20194;-64
2023/02/21 03:21:46;;;;;;;3.83;0.80;;;7.10;99.90;;;6.81;66.65;98821.03;5027661;28;20259;-66
2023/02/21 03:24:18;;;;;;;0.93;0.70;;;7.00;99.90;;;6.81;66.22;98823.59;5036221;28;20191;-66
2023/02/21 03:26:52;;;;;;;2.40;0.80;;;7.00;99.90;;;6.78;66.46;98829.63;5034953;28;20202;-65
2023/02/21 03:29:21;;;;;;;2.00;0.80;;;7.00;99.90;;;6.78;66.61;98824.53;5035901;28;20213;-65
2023/02/21 03:31:56;;;;;;;3.40;0.90;;;7.00;99.90;;;6.78;66.50;98806.59;5039669;28;20215;-65
2023/02/21 03:34:25;;;;;;;2.23;0.97;;;7.00;99.90;;;6.76;66.14;98811.72;5038669;28;20262;-66
2023/02/21 03:36:56;;;;;;;2.63;1.00;;;7.00;99.90;;;6.76;66.09;98831.38;5039678;28;20191;-65
2023/02/21 03:39:24;;;;;;;2.23;1.10;;;7.00;99.90;;;6.77;66.25;98828.81;5039093;28;20242;-65
2023/02/21 03:41:53;;;;;;;4.63;0.90;;;7.00;99.90;;;6.75;66.65;98825.41;5039358;28;20187;-65
2023/02/21 03:44:21;;;;;;;3.13;1.00;;;7.00;99.90;;;6.74;66.48;98826.28;5038460;28;20200;-65
2023/02/21 03:46:49;;;;;;;3.13;1.10;;;7.00;99.90;;;6.70;66.05;98822.09;5039275;28;20234;-65
2023/02/21 03:49:18;;;;;;;3.13;1.30;;;7.00;99.90;;;6.69;65.93;98828.06;5037300;28;20179;-64
2023/02/21 03:51:46;;;;;;;6.10;1.40;;;6.90;99.90;;;6.64;66.00;98813.66;5026981;28;20216;-65
2023/02/21 03:54:16;;;;;;;2.87;0.87;;;6.90;99.90;;;6.63;64.68;98827.28;5037866;28;20188;-65
2023/02/21 03:56:44;;;;;;;4.97;1.10;;;6.90;99.90;;;6.62;65.10;98840.97;5039551;28;20194;-65
2023/02/21 03:59:13;;;;;;;5.83;1.10;;;6.80;99.90;;;6.59;63.91;98834.19;5032281;28;20380;-66
2023/02/21 04:01:41;;;;;;;6.63;1.20;;;6.80;99.90;;;6.58;63.86;98829.09;5037836;28;20222;-65
2023/02/21 04:04:12;;;;;;;5.00;1.33;;;6.80;99.90;;;6.54;63.75;98835.97;5031387;28;20281;-64
2023/02/21 04:06:41;;;;;;;3.33;1.13;;;6.80;99.90;;;6.54;63.46;98829.13;5035198;28;20216;-66
2023/02/21 04:09:09;;;;;;;4.23;1.50;;;6.80;99.90;;;6.50;62.85;98844.56;5037219;28;20187;-65
2023/02/21 04:11:42;;;;;;;6.17;1.90;;;6.80;99.90;;;6.46;62.33;98846.31;5038665;28;20199;-65
2023/02/21 04:14:11;;;;;;;7.70;1.93;;;6.70;99.90;;;6.44;62.57;98837.84;5036809;28;20183;-65
2023/02/21 04:16:40;;;;;;;8.50;2.20;;;6.70;99.90;;;6.43;61.82;98836.13;5037516;28;20199;-66
2023/02/21 04:19:09;;;;;;;5.87;1.80;;;6.70;99.90;;;6.41;61.06;98829.34;5037788;28;20234;-65
2023/02/21 04:21:37;;;;;;;2.77;1.30;;;6.70;99.90;;;6.40;61.62;98827.63;5036923;28;20214;-65
2023/02/21 04:24:06;;;;;;;7.70;1.50;;;6.60;99.90;;;6.40;61.04;98819.97;5037777;28;20230;-64
2023/02/21 04:26:35;;;;;;;6.30;1.90;;;6.60;99.90;;;6.37;61.58;98814.88;5037853;28;20222;-64
2023/02/21 04:29:05;;;;;;;3.77;1.47;;;6.60;99.90;;;6.38;61.13;98826.84;5027156;28;20255;-65
2023/02/21 04:31:34;;;;;;;3.37;1.40;;;6.60;99.90;;;6.37;60.55;98820.88;5037998;28;20198;-65
2023/02/21 04:34:03;;;;;;;5.23;1.80;;;6.60;99.90;;;6.36;60.61;98829.41;5032514;28;20194;-64
2023/02/21 04:36:39;;;;;;;11.83;2.10;;;6.60;99.90;;;6.35;60.29;98835.38;5036212;28;20187;-65
2023/02/21 04:39:08;;;;;;;6.67;1.97;;;6.60;99.90;;;6.35;60.48;98832.00;5029016;28;20204;-65
2023/02/21 04:41:37;;;;;;;6.43;2.07;;;6.60;99.90;;;6.38;59.87;98847.31;5032798;28;20247;-64
2023/02/21 04:44:07;;;;;;;10.10;1.97;;;6.70;99.90;;;6.38;60.22;98852.41;5032295;28;20191;-64
2023/02/21 04:46:35;;;;;;;8.73;1.63;;;6.60;99.90;;;6.38;60.07;98840.47;5037873;28;20219;-64
2023/02/21 04:49:04;;;;;;;5.33;1.40;;;6.70;99.90;;;6.40;59.14;98850.66;5037164;28;20206;-64
2023/02/21 04:51:32;;;;;;;7.27;1.60;;;6.70;99.90;;;6.39;58.96;98854.09;5037761;28;20199;-65
2023/02/21 04:54:02;;;;;;;5.50;1.47;;;6.70;99.90;;;6.39;59.21;98869.44;5029455;28;20247;-64
2023/02/21 04:56:31;;;;;;;5.43;1.60;;;6.60;99.90;;;6.37;59.23;98845.59;5038394;28;20187;-64
2023/02/21 04:59:00;;;;;;;8.03;1.60;;;6.70;99.90;;;6.37;58.70;98850.69;5036514;28;20203;-66
2023/02/21 05:01:31;;;;;;;10.77;1.63;;;6.60;99.90;;;6.38;58.74;98857.53;5031867;28;20230;-65
2023/02/21 05:04:00;;;;;;;6.33;1.63;;;6.60;99.90;;;6.38;58.17;98849.84;5037468;28;20203;-68
2023/02/21 05:06:30;;;;;;;4.00;1.63;;;6.70;99.90;;;6.40;58.20;98858.34;5029282;28;20187;-65
2023/02/21 05:08:59;;;;;;;6.80;1.70;;;6.70;99.90;;;6.41;57.63;98858.34;5032408;28;20195;-64
2023/02/21 05:11:28;;;;;;;5.47;1.30;;;6.70;99.90;;;6.40;58.00;98848.94;5036147;28;20195;-65
2023/02/21 05:13:56;;;;;;;6.07;1.30;;;6.70;99.90;;;6.40;58.52;98860.91;5036071;28;20247;-66
2023/02/21 05:16:25;;;;;;;5.07;1.50;;;6.70;99.90;;;6.39;58.34;98857.50;5032232;28;20218;-64
2023/02/21 05:18:55;;;;;;;3.97;1.13;;;6.70;99.90;;;6.42;58.07;98859.19;5036755;28;20222;-65
2023/02/21 05:21:23;;;;;;;4.33;1.20;;;6.70;99.90;;;6.44;58.23;98862.53;5037429;28;20183;-66
2023/02/21 05:23:58;;;;;;;5.17;1.37;;;6.70;99.90;;;6.44;57.86;98865.97;5033398;28;20218;-65
2023/02/21 05:26:30;;;;;;;4.30;1.00;;;6.70;99.90;;;6.45;57.90;98854.88;5043086;28;20191;-66
2023/02/21 05:28:58;;;;;;;8.93;1.63;;;6.70;99.90;;;6.47;57.73;98857.38;5030842;28;20207;-65
2023/02/21 05:31:27;;;;;;;4.50;1.07;;;6.80;99.90;;;6.48;58.01;98859.94;5017749;28;20211;-65
2023/02/21 05:33:57;;;;;;;6.17;1.57;;;6.80;99.90;;;6.49;57.67;98868.47;5010031;28;20690;-64
2023/02/21 05:36:25;;;;;;;4.87;1.17;;;6.80;99.90;;;6.50;57.68;98844.56;5014248;28;20258;-65
2023/02/21 05:38:55;;;;;;;5.97;1.20;;;6.80;99.90;;;6.50;58.28;98857.34;5014761;28;20230;-65
2023/02/21 05:41:24;;;;;;;4.07;1.07;;;6.80;99.90;;;6.49;57.93;98856.50;5014341;28;20207;-65
2023/02/21 05:43:53;;;;;;;4.43;1.40;;;6.80;99.90;;;6.51;57.78;98859.88;5014287;28;20204;-66
2023/02/21 05:46:25;;;;;;;3.57;1.20;;;6.80;99.90;;;6.49;57.89;98851.41;5013304;28;20203;-66
2023/02/21 05:48:54;;;;;;;4.17;1.20;;;6.80;99.90;;;6.50;57.92;98862.47;5005657;28;20208;-64
2023/02/21 05:51:23;;;;;;;7.47;1.20;;;6.80;99.90;;;6.51;58.46;98870.13;5014668;28;20242;-67
2023/02/21 05:53:52;;;;;;;6.57;1.67;;;6.80;99.90;;;6.55;58.58;98870.91;5014339;28;20223;-66
2023/02/21 05:56:21;;;;;;;3.60;1.50;;;6.80;99.90;;;6.52;58.87;98870.97;5013062;28;20262;-66
2023/02/21 05:58:50;;;;;;;3.77;0.87;;;6.80;99.90;;;6.55;58.87;98876.03;5009658;28;20657;-66
2023/02/21 06:01:18;;;;;;;6.57;1.40;;;6.90;99.90;;;6.56;58.95;98875.19;5009330;28;20225;-64
2023/02/21 06:03:47;;;;;;;8.00;1.60;;;6.80;99.90;;;6.58;59.82;98885.38;5010878;28;20738;-66
2023/02/21 06:06:16;;;;;;;6.13;1.43;;;6.80;99.90;;;6.59;58.99;98871.72;5004068;28;20203;-64
2023/02/21 06:08:49;;;;;;;6.27;1.23;;;6.90;99.90;;;6.60;59.91;98876.00;5013168;28;20212;-61
2023/02/21 06:11:24;;;;;;;5.27;1.33;;;6.80;99.90;;;6.59;59.54;98889.63;5016053;28;20605;-62
2023/02/21 06:13:54;;;;;;;5.93;1.60;;;6.90;99.90;;;6.60;59.63;98884.50;5016354;28;20249;-64
2023/02/21 06:16:23;;;;;;;4.63;1.40;;;6.90;99.90;;;6.60;58.81;98889.63;5008564;28;20632;-65
2023/02/21 06:18:53;;;;;;;7.53;1.47;;;6.90;99.90;;;6.60;59.22;98887.06;5007673;28;20723;-63
2023/02/21 06:21:21;;;;;;;6.07;1.90;;;6.90;99.90;;;6.62;58.75;98890.44;5015107;28;20207;-63
2023/02/21 06:23:51;;;;;;;6.33;2.03;;;6.90;99.90;;;6.61;59.01;98898.16;5008005;28;20661;-63
2023/02/21 06:26:22;;;;;;;5.53;1.17;;;6.90;99.90;;;6.64;59.15;98896.41;5015180;28;20250;-63
2023/02/21 06:28:51;;;;;;;3.60;1.63;;;6.90;99.90;;;6.63;58.60;98894.72;5016928;28;20231;-62
2023/02/21 06:31:21;;;;;;;4.50;1.40;;;6.90;99.90;;;6.64;58.82;98896.41;5012372;28;20207;-64
2023/02/21 06:33:50;;;;;;;6.37;1.40;;;6.90;99.90;;;6.63;58.44;98897.28;5006873;28;20699;-63
2023/02/21 06:36:22;;;;;;;6.23;1.77;;;6.90;99.90;;;6.63;57.94;98894.72;5013608;28;20203;-62
2023/02/21 06:38:55;;;;;;;4.87;1.43;;;6.90;99.90;;;6.65;58.31;98892.97;5017938;28;20277;-63
2023/02/21 06:41:28;;;;;;;7.10;1.87;;;6.90;99.90;;;6.66;58.41;98898.91;5015562;28;20262;-64
2023/02/21 06:43:58;;;;;;;6.97;2.07;;;6.90;99.90;;;6.68;57.99;98908.28;5013251;28;20192;-62
2023/02/21 06:46:29;;;;;;;7.63;1.73;;;7.00;99.90;;;6.69;57.85;98904.84;5013527;28;20200;-68
2023/02/21 06:48:58;;;;;;;6.70;3.17;;;7.00;99.90;;;6.71;57.82;98905.69;5005458;28;20234;-62
2023/02/21 06:51:28;;;;;;;6.53;1.90;;;7.00;99.90;;;6.71;57.86;98913.34;5014018;28;20203;-64
2023/02/21 06:53:59;;;;;;;7.03;1.33;;;7.00;99.90;;;6.74;58.20;98926.13;5008883;28;20245;-62
2023/02/21 06:56:27;;;;;;;7.87;1.70;;;7.00;99.90;;;6.76;57.88;98915.84;5009471;28;20199;-64
2023/02/21 06:58:56;;;;;;;7.37;2.03;;;7.00;99.90;;;6.76;57.63;98920.97;5012475;28;20207;-62
2023/02/21 07:01:26;;;;;;;7.50;1.67;;;7.10;99.90;;;6.77;58.02;98930.31;5011249;28;20241;-65
2023/02/21 07:03:56;;;;;;;7.60;1.77;;;7.10;99.90;;;6.76;57.94;98933.75;5000250;28;20205;-62
2023/02/21 07:06:25;;;;;;;6.30;1.67;;;7.10;99.90;;;6.78;58.48;98940.56;5003594;28;20277;-67
2023/02/21 07:08:58;;;;;;;6.27;1.43;;;7.10;99.90;;;6.80;58.55;98939.69;5003475;28;20751;-63
2023/02/21 07:11:27;;;;;;;9.03;1.50;;;7.10;99.90;;;6.82;59.52;98956.72;4999683;28;20649;-63
2023/02/21 07:13:58;;;;;;;5.27;1.40;;;7.10;99.90;;;6.83;59.39;98966.09;5009256;28;20226;-64
2023/02/21 07:16:27;;;;;;;6.33;1.93;;;7.10;99.90;;;6.82;59.20;98976.38;5010883;28;20287;-63
2023/02/21 07:18:56;;;;;;;6.77;1.60;;;7.10;99.90;;;6.76;59.80;98967.88;5012547;28;20215;-65
2023/02/21 07:21:27;;;;;;;8.50;1.60;;;7.10;99.90;;;6.75;60.00;98984.13;5009213;28;20286;-64
2023/02/21 07:23:56;;;;;;;6.00;1.47;;;7.10;99.90;;;6.75;59.92;98981.56;5011059;28;20207;-63
2023/02/21 07:26:26;;;;;;;6.63;1.37;;;7.00;99.90;;;6.74;60.37;98997.78;5017050;28;20257;-64
2023/02/21 07:28:54;;;;;;;8.00;1.50;;;7.10;99.90;;;6.73;60.81;98993.53;5013719;28;20239;-64
2023/02/21 07:31:22;;;;;;;5.33;1.60;;;7.00;99.90;;;6.74;60.44;99002.06;5013496;28;20207;-64
2023/02/21 07:33:51;;;;;;;6.73;1.60;;;7.00;99.90;;;6.72;61.24;99007.19;5024895;28;20226;-63
2023/02/21 07:36:19;;;;;;;6.30;1.87;;;7.00;99.90;;;6.72;60.73;99017.44;5009906;28;20250;-65
2023/02/21 07:38:48;;;;;;;4.03;1.50;;;7.00;99.90;;;6.75;61.27;99014.00;5013373;28;20261;-64
2023/02/21 07:41:16;;;;;;;5.77;1.90;;;7.10;99.90;;;6.75;61.31;99024.25;5010861;28;20215;-62
2023/02/21 07:43:46;;;;;;;7.53;1.83;;;7.00;99.90;;;6.80;60.79;99034.41;5004672;28;20218;-64
2023/02/21 07:46:17;;;;;;;5.27;1.53;;;7.00;99.90;;;6.78;60.69;99035.28;5012771;28;20207;-64
2023/02/21 07:48:46;;;;;;;6.63;2.00;;;7.10;99.90;;;6.78;61.60;99034.44;5012212;28;20621;-64
2023/02/21 07:51:14;;;;;;;7.93;2.07;;;7.10;99.90;;;6.77;61.86;99041.28;5012436;28;20571;-64
2023/02/21 07:53:43;;;;;;;6.57;1.80;;;7.10;99.90;;;6.78;61.33;99030.16;5011912;28;20211;-65
2023/02/21 07:56:11;;;;;;;5.53;1.93;;;7.10;99.90;;;6.77;61.07;99041.28;5012244;28;20203;-65
2023/02/21 07:58:40;;;;;;;9.40;2.53;;;7.10;99.90;;;6.78;61.69;99044.69;5010622;28;20211;-64
2023/02/21 08:01:11;;;;;;;6.37;1.90;;;7.10;99.90;;;6.77;61.07;99041.28;5011738;28;20207;-65
2023/02/21 08:03:40;;;;;;;8.43;2.63;;;7.00;99.90;;;6.77;61.26;99050.66;5015070;28;20211;-64
2023/02/21 08:06:10;;;;;;;7.73;2.50;;;7.00;99.90;;;6.76;61.13;99067.72;5016524;28;20277;-65
2023/02/21 08:08:38;;;;;;;9.27;1.80;;;7.10;99.90;;;6.80;61.21;99055.75;5008855;28;20211;-64
2023/02/21 08:11:07;;;;;;;6.50;1.70;;;7.10;99.90;;;6.82;61.53;99068.53;5004833;28;20211;-64
2023/02/21 08:13:36;;;;;;;9.07;1.80;;;7.10;99.90;;;6.83;61.36;99067.66;5012173;28;20242;-64
2023/02/21 08:16:05;;;;;;;7.47;1.67;;;7.10;99.90;;;6.85;61.57;99055.66;5011295;28;20230;-65
2023/02/21 08:18:34;;;;;;;11.43;2.20;;;7.10;99.90;;;6.82;61.92;99071.09;5013598;28;20207;-64
2023/02/21 08:21:03;;;;;;;6.60;1.50;;;7.10;99.90;;;6.83;62.20;99062.53;5009880;28;20637;-65
2023/02/21 08:23:32;;;;;;;8.40;2.37;;;7.10;99.90;;;6.82;62.09;99068.53;5015252;28;20227;-63
2023/02/21 08:26:00;;;;;;;11.10;2.40;;;7.10;99.90;;;6.81;62.08;99082.19;5014244;28;20242;-65
2023/02/21 08:28:28;;;;;;;6.40;2.13;;;7.10;99.90;;;6.83;62.08;99090.72;5014047;28;20765;-65
2023/02/21 08:30:57;;;;;;;7.03;2.00;;;7.10;99.90;;;6.83;62.51;99090.72;5008814;28;20211;-65
2023/02/21 08:33:26;;;;;;;5.60;1.40;;;7.10;99.90;;;6.81;62.15;99090.72;5013040;28;20211;-65
2023/02/21 08:35:59;;;;;;;6.87;1.80;;;7.10;99.90;;;6.77;62.19;99092.47;5013360;28;20635;-65
2023/02/21 08:38:27;;;;;;;7.67;1.80;;;7.10;99.90;;;6.75;63.10;99096.75;5009030;28;20587;-64
2023/02/21 08:40:57;;;;;;;8.37;1.83;;;7.10;99.90;;;6.76;62.77;99110.41;5008335;28;20216;-67
2023/02/21 08:43:26;;;;;;;6.43;1.93;;;7.10;99.90;;;6.77;62.22;99115.53;5014924;28;20235;-66
2023/02/21 08:45:55;;;;;;;8.83;2.30;;;7.10;99.90;;;6.77;62.76;99112.97;5010435;28;20258;-64
2023/02/21 08:48:23;;;;;;;6.53;2.07;;;7.10;99.90;;;6.81;63.18;99102.66;5011480;28;20270;-65
2023/02/21 08:50:52;;;;;;;7.13;2.03;;;7.10;99.90;;;6.85;62.83;99114.56;5013416;28;20243;-66
2023/02/21 08:53:22;;;;;;;6.73;1.80;;;7.10;99.90;;;6.89;62.38;99132.47;5009887;28;20241;-65
2023/02/21 08:55:50;;;;;;;7.43;1.80;;;7.20;99.90;;;6.90;62.10;99136.69;5013643;28;20684;-66
2023/02/21 08:58:18;;;;;;;8.00;1.90;;;7.20;99.90;;;6.91;62.91;99129.88;5013901;28;20242;-65
2023/02/21 09:00:47;;;;;;;9.03;1.83;;;7.20;99.90;;;6.92;62.50;99136.69;5010080;28;20940;-66
2023/02/21 09:03:15;;;;;;;10.53;2.13;;;7.20;99.90;;;6.96;62.49;99134.09;5014626;28;20286;-67
2023/02/21 09:05:44;;;;;;;6.70;1.77;;;7.30;99.90;;;7.01;62.48;99139.16;5011045;28;20378;-66
2023/02/21 09:08:12;;;;;;;8.20;2.40;;;7.30;99.90;;;7.05;62.04;99148.47;5013535;28;20211;-64
2023/02/21 09:10:46;;;;;;;10.87;2.40;;;7.40;99.90;;;7.08;62.67;99148.47;5013931;28;20235;-64
2023/02/21 09:13:15;;;;;;;4.83;1.67;;;7.30;99.90;;;7.10;62.47;99141.59;5012766;28;20294;-66
2023/02/21 09:15:43;;;;;;;10.00;2.30;;;7.40;99.90;;;7.10;62.45;99151.81;5005139;28;20231;-66
2023/02/21 09:18:12;;;;;;;7.17;2.30;;;7.40;99.90;;;7.13;62.87;99153.50;5010490;28;20542;-65
2023/02/21 09:20:41;;;;;;;9.17;2.27;;;7.40;99.90;;;7.13;63.28;99150.94;5013290;28;20211;-63
2023/02/21 09:23:10;;;;;;;7.47;1.97;;;7.40;99.90;;;7.11;63.28;99162.94;5012217;28;20702;-64
2023/02/21 09:25:38;;;;;;;6.63;1.73;;;7.40;99.90;;;7.06;64.07;99175.78;5016210;28;20217;-65
2023/02/21 09:28:08;;;;;;;6.87;1.60;;;7.40;99.90;;;7.07;63.51;99172.38;5012094;28;20228;-64
2023/02/21 09:30:36;;;;;;;8.10;1.60;;;7.30;99.90;;;7.05;64.49;99179.22;5014304;28;20898;-65
2023/02/21 09:33:05;;;;;;;6.43;1.97;;;7.30;99.90;;;7.05;64.46;99186.91;5005359;28;20208;-65
2023/02/21 09:35:33;;;;;;;8.57;2.63;;;7.30;99.90;;;7.02;64.75;99192.06;5008537;28;20227;-64
2023/02/21 09:38:02;;;;;;;10.63;2.07;;;7.30;99.90;;;7.04;64.59;99200.59;5011221;28;20218;-63
2023/02/21 09:40:39;;;;;;;7.47;1.73;;;7.30;99.90;;;7.07;64.48;99203.13;5009459;28;20645;-64
2023/02/21 09:43:15;;;;;;;8.33;2.13;;;7.40;99.90;;;7.13;64.20;99203.03;5006226;28;20203;-65
2023/02/21 09:45:45;;;;;;;6.17;2.13;;;7.40;99.90;;;7.22;64.50;99199.53;5010458;28;20218;-65
2023/02/21 09:48:17;;;;;;;5.60;1.83;;;7.50;99.90;;;7.26;63.61;99209.72;5009925;28;20230;-65
2023/02/21 09:50:50;;;;;;;6.20;1.70;;;7.50;99.90;;;7.28;64.44;99211.41;5012933;28;20233;-64
2023/02/21 09:53:24;;;;;;;4.60;1.40;;;7.50;99.90;;;7.34;64.06;99211.34;5016807;28;20203;-68
2023/02/21 09:55:59;;;;;;;6.73;1.73;;;7.60;99.90;;;7.41;64.14;99230.91;5011449;28;20641;-65
2023/02/21 09:58:29;;;;;;;6.80;2.10;;;7.70;99.90;;;7.42;63.69;99215.50;5016118;28;20203;-66
2023/02/21 10:01:03;;;;;;;5.50;1.70;;;7.70;99.90;;;7.49;64.64;99222.25;5017354;28;20207;-70
2023/02/21 10:03:45;;;;;;;5.90;2.37;;;7.80;99.90;;;7.50;64.40;99234.19;5012920;28;20195;-65
2023/02/21 10:06:30;;;;;;;5.10;1.70;;;7.80;99.90;;;7.44;63.59;99225.75;5014051;28;20258;-70
2023/02/21 10:09:06;;;;;;;7.70;2.27;;;7.70;99.90;;;7.37;64.32;99239.50;5015814;28;20199;-70
2023/02/21 10:11:50;;;;;;;5.63;1.30;;;7.70;99.90;;;7.32;64.53;99243.81;5022939;28;20183;-68
2023/02/21 10:14:31;;;;;;;5.17;1.70;;;7.70;99.90;;;7.28;65.59;99237.03;5026731;28;20191;-66
2023/02/21 10:17:11;;;;;;;6.30;1.97;;;7.60;99.90;;;7.26;65.82;99244.75;5014708;28;20321;-65
2023/02/21 10:19:43;;;;;;;6.13;2.10;;;7.60;99.90;;;7.31;65.19;99252.38;5015828;28;20234;-64
2023/02/21 10:22:20;;;;;;;7.63;2.10;;;7.60;99.90;;;7.42;65.42;99250.53;5018158;28;20200;-64
2023/02/21 10:24:50;;;;;;;9.93;2.37;;;7.80;99.90;;;7.54;65.44;99252.09;5015368;28;20553;-64
2023/02/21 10:27:23;;;;;;;6.33;2.20;;;7.80;99.90;;;7.56;64.48;99251.22;5018887;28;20211;-63
2023/02/21 10:30:00;;;;;;;9.43;1.97;;;7.90;99.90;;;7.68;64.76;99248.50;5015524;28;20222;-64
2023/02/21 10:32:29;;;;;;;9.00;2.23;;;8.00;99.90;;;7.81;64.28;99256.06;5020987;28;20578;-64
2023/02/21 10:34:58;;;;;;;8.77;2.30;;;8.10;99.90;;;7.79;64.08;99253.50;5019267;28;20658;-65
2023/02/21 10:37:38;;;;;;;7.00;1.90;;;8.10;99.90;;;7.80;65.25;99251.78;5013522;28;20203;-64
2023/02/21 10:40:22;;;;;;;8.50;2.13;;;8.10;99.90;;;7.91;64.74;99253.31;5015477;28;20206;-66
2023/02/21 10:42:56;;;;;;;7.77;2.43;;;8.20;99.90;;;7.96;65.08;99253.28;5016019;28;20229;-63
2023/02/21 10:45:35;;;;;;;6.80;2.23;;;8.20;99.90;;;7.96;65.11;99255.84;5021578;28;20219;-66
2023/02/21 10:48:07;;;;;;;5.33;2.40;;;8.20;99.90;;;7.93;65.05;99258.44;5019747;28;20282;-66
2023/02/21 10:50:49;;;;;;;5.90;1.90;;;8.20;99.90;;;7.86;64.95;99262.81;5017635;28;20207;-65
2023/02/21 10:53:31;;;;;;;9.27;2.63;;;8.20;99.90;;;7.77;64.49;99257.81;5014869;28;20234;-66
2023/02/21 10:56:27;;;;;;;6.10;1.33;;;8.10;99.90;;;7.68;64.62;99257.91;5015217;28;20230;-66
2023/02/21 10:58:59;;;;;;;7.17;2.53;;;7.90;99.90;;;7.57;64.51;99278.56;5016817;28;21060;-62
2023/02/21 11:01:38;;;;;;;5.07;2.20;;;7.80;99.90;;;7.47;64.14;99279.53;5011858;28;20656;-63
2023/02/21 11:04:24;;;;;;;8.80;2.07;;;7.70;99.90;;;7.42;65.05;99276.16;5012949;28;20556;-65
2023/02/21 11:06:56;;;;;;;8.53;2.23;;;7.70;99.90;;;7.38;65.31;99282.19;5016292;28;20195;-68
2023/02/21 11:09:41;;;;;;;7.53;2.17;;;7.70;99.90;;;7.40;64.87;99285.56;5012764;28;20257;-73
2023/02/21 11:12:24;;;;;;;5.43;2.00;;;7.70;99.90;;;7.37;64.68;99286.47;5016023;28;20633;-67
2023/02/21 11:15:18;;;;;;;9.13;2.03;;;7.70;99.90;;;7.32;64.91;99283.09;5012110;28;20283;-66
2023/02/21 11:18:06;;;;;;;6.77;2.03;;;7.60;99.90;;;7.29;65.28;99292.53;5016566;28;20207;-66
2023/02/21 11:20:34;;;;;;;7.67;2.23;;;7.60;99.90;;;7.29;65.17;99300.22;5009784;28;20203;-64
2023/02/21 11:23:05;;;;;;;8.30;2.43;;;7.60;99.90;;;7.33;65.44;99309.56;5007750;28;20270;-63
2023/02/21 11:25:39;;;;;;;5.37;2.53;;;7.70;99.90;;;7.43;64.56;99298.38;5007994;28;20204;-67
2023/02/21 11:28:20;;;;;;;5.83;1.90;;;7.80;99.90;;;7.57;64.00;99301.63;5001997;28;20223;-68
2023/02/21 11:31:05;;;;;;;6.53;2.17;;;7.90;99.90;;;7.69;64.08;99300.63;5016126;28;20207;-63
2023/02/21 11:33:38;;;;;;;4.30;1.67;;;8.00;99.90;;;7.80;63.83;99303.06;5010471;28;20207;-63
2023/02/21 11:36:14;;;;;;;6.57;1.93;;;8.10;99.90;;;7.88;62.71;99303.81;5015435;28;20266;-65
2023/02/21 11:38:46;;;;;;;7.47;1.93;;;8.20;99.90;;;7.91;62.03;99306.34;5016005;28;20242;-65
2023/02/21 11:41:23;;;;;;;5.27;1.90;;;8.20;99.90;;;7.88;61.29;99314.06;5014292;28;20702;-66
2023/02/21 11:43:54;;;;;;;5.47;2.10;;;8.20;99.90;;;7.86;61.94;99303.00;5008150;28;20226;-66
2023/02/21 11:46:37;;;;;;;6.90;2.20;;;8.20;99.90;;;7.87;62.18;99300.41;5011515;28;20246;-67
2023/02/21 11:49:18;;;;;;;8.20;2.00;;;8.20;99.90;;;7.92;61.89;99302.94;5007292;28;20818;-66
2023/02/21 11:51:51;;;;;;;7.43;2.30;;;8.20;99.90;;;7.88;61.76;99303.81;5014820;28;20284;-66
2023/02/21 11:54:24;;;;;;;6.33;2.00;;;8.20;99.90;;;7.84;61.76;99297.03;5024992;28;20203;-68
2023/02/21 11:57:01;;;;;;;5.00;1.80;;;8.20;99.90;;;7.92;61.89;99320.88;5033225;28;20215;-69
2023/02/21 11:59:43;;;;;;;9.17;2.17;;;8.30;99.90;;;8.06;60.91;99313.00;5031156;28;20218;-67
2023/02/21 12:03:03;;;;;;;5.93;2.20;;;8.40;99.90;;;8.21;60.16;99315.34;5032721;28;20179;-68
2023/02/21 12:05:47;;;;;;;5.03;1.90;;;8.60;99.90;;;8.30;60.04;99324.66;5024366;28;20211;-68
2023/02/21 12:08:36;;;;;;;7.80;2.00;;;8.60;99.90;;;8.29;59.64;99323.81;5026116;28;20215;-68
2023/02/21 12:11:22;;;;;;;4.80;2.10;;;8.60;99.90;;;8.24;59.70;99331.56;5030167;28;20238;-68
2023/02/21 12:14:19;;;;;;;6.97;2.20;;;8.60;99.90;;;8.16;60.92;99330.81;5017473;28;20257;-69
2023/02/21 12:17:03;;;;;;;8.43;2.23;;;8.50;99.90;;;8.15;61.82;99341.13;5014669;28;20273;-72
2023/02/21 12:19:55;;;;;;;7.77;1.90;;;8.50;99.90;;;8.26;62.25;99348.66;5000053;28;20722;-69
2023/02/21 12:22:52;;;;;;;9.93;2.10;;;8.70;99.90;;;8.29;61.36;99343.50;5013637;28;20237;-69
2023/02/21 12:25:32;;;;;;;6.30;2.40;;;8.60;99.90;;;8.36;61.44;99345.13;5012772;28;20652;-71
2023/02/21 12:28:16;;;;;;;9.17;2.07;;;8.70;99.90;;;8.53;61.47;99350.88;5002548;28;20195;-69
2023/02/21 12:31:09;;;;;;;9.87;2.00;;;8.90;99.90;;;8.62;60.97;99345.63;5006743;28;20652;-70
2023/02/21 12:33:47;;;;;;;9.97;2.40;;;8.90;99.90;;;8.73;59.97;99347.16;5005960;28;20203;-69
2023/02/21 12:36:35;;;;;;;6.40;2.20;;;9.00;99.90;;;8.73;59.15;99353.16;5015901;28;20262;-69
2023/02/21 12:39:21;;;;;;;4.67;2.07;;;9.10;99.90;;;8.64;59.13;99346.44;5006612;28;20215;-67
2023/02/21 12:42:13;;;;;;;8.73;1.90;;;9.00;99.90;;;8.60;60.45;99349.91;5009361;28;20202;-71
2023/02/21 12:44:57;;;;;;;5.27;2.17;;;9.00;99.90;;;8.64;60.11;99351.56;5010670;28;20216;-72
2023/02/21 12:47:32;;;;;;;7.17;2.60;;;9.00;99.90;;;8.67;60.14;99343.81;5001429;28;20234;-73
2023/02/21 12:50:07;;;;;;;6.80;2.67;;;9.00;99.90;;;8.66;59.21;99344.69;5006458;28;20289;-69
2023/02/21 12:52:44;;;;;;;5.10;2.13;;;9.00;99.90;;;8.67;59.28;99348.94;5013097;28;20265;-72
2023/02/21 12:55:21;;;;;;;7.20;2.23;;;9.00;99.90;;;8.66;59.23;99344.69;5005152;28;20250;-75
2023/02/21 12:57:58;;;;;;;5.13;2.00;;;9.00;99.90;;;8.67;58.79;99346.38;5011358;28;20223;-71
2023/02/21 13:00:33;;;;;;;3.67;1.90;;;9.00;99.90;;;8.71;58.46;99358.31;5006128;28;20207;-70
2023/02/21 13:03:17;;;;;;;5.33;1.83;;;9.10;99.90;;;8.92;57.99;99361.44;5010150;28;20202;-68
2023/02/21 13:05:52;;;;;;;5.47;1.93;;;9.30;99.90;;;8.98;57.22;99363.88;5005996;28;20254;-66
2023/02/21 13:08:24;;;;;;;4.23;1.90;;;9.40;99.90;;;9.11;57.53;99362.81;5012169;28;20249;-70
2023/02/21 13:11:06;;;;;;;8.83;2.10;;;9.50;99.90;;;9.26;56.38;99372.00;5007190;28;20245;-70
2023/02/21 13:13:35;;;;;;;5.83;2.00;;;9.60;99.90;;;9.52;55.83;99370.69;5012016;28;20245;-72
2023/02/21 13:16:09;;;;;;;5.17;1.87;;;9.90;99.90;;;9.60;54.68;99371.38;5013624;28;20305;-71